sensor_id;sensor_type;location;lat;lon;timestamp;temperature;humidity
18365;DHT22;9309;52.126;11.616;2024-02-23T00:02:05;11.70;71.00
18365;DHT22;9309;52.126;11.616;2024-02-23T00:04:32;11.70;69.60
18365;DHT22;9309;52.126;11.616;2024-02-23T00:06:58;11.70;69.00
18365;DHT22;9309;52.126;11.616;2024-02-23T00:09:26;11.80;68.80
18365;DHT22;9309;52.126;11.616;2024-02-23T00:11:52;11.70;68.90
18365;DHT22;9309;52.126;11.616;2024-02-23T00:14:19;11.70;69.30
18365;DHT22;9309;52.126;11.616;2024-02-23T00:16:46;11.60;70.00
18365;DHT22;9309;52.126;11.616;2024-02-23T00:19:13;11.50;70.40
18365;DHT22;9309;52.126;11.616;2024-02-23T00:21:40;11.40;70.10
18365;DHT22;9309;52.126;11.616;2024-02-23T00:24:07;11.40;69.40
18365;DHT22;9309;52.126;11.616;2024-02-23T00:26:35;11.30;67.10
18365;DHT22;9309;52.126;11.616;2024-02-23T00:29:02;11.30;66.20
18365;DHT22;9309;52.126;11.616;2024-02-23T00:31:28;11.20;64.60
18365;DHT22;9309;52.126;11.616;2024-02-23T00:33:55;11.10;63.80
18365;DHT22;9309;52.126;11.616;2024-02-23T00:36:21;11.00;63.90
18365;DHT22;9309;52.126;11.616;2024-02-23T00:38:48;10.90;62.00
18365;DHT22;9309;52.126;11.616;2024-02-23T00:41:15;10.90;61.20
18365;DHT22;9309;52.126;11.616;2024-02-23T00:43:43;10.80;61.20
18365;DHT22;9309;52.126;11.616;2024-02-23T00:46:09;10.80;61.70
18365;DHT22;9309;52.126;11.616;2024-02-23T00:48:36;10.70;62.20
18365;DHT22;9309;52.126;11.616;2024-02-23T00:51:02;10.60;62.20
18365;DHT22;9309;52.126;11.616;2024-02-23T00:53:30;10.50;63.00
18365;DHT22;9309;52.126;11.616;2024-02-23T00:55:56;10.40;63.40
18365;DHT22;9309;52.126;11.616;2024-02-23T00:58:23;10.30;63.70
18365;DHT22;9309;52.126;11.616;2024-02-23T01:00:51;10.20;63.20
18365;DHT22;9309;52.126;11.616;2024-02-23T01:03:17;10.10;63.90
18365;DHT22;9309;52.126;11.616;2024-02-23T01:05:43;10.10;63.20
18365;DHT22;9309;52.126;11.616;2024-02-23T01:08:10;10.10;61.80
18365;DHT22;9309;52.126;11.616;2024-02-23T01:10:36;10.10;61.80
18365;DHT22;9309;52.126;11.616;2024-02-23T01:13:03;10.00;60.70
18365;DHT22;9309;52.126;11.616;2024-02-23T01:15:30;9.90;60.80
18365;DHT22;9309;52.126;11.616;2024-02-23T01:17:58;9.80;60.90
18365;DHT22;9309;52.126;11.616;2024-02-23T01:20:24;9.70;61.40
18365;DHT22;9309;52.126;11.616;2024-02-23T01:22:51;9.60;61.80
18365;DHT22;9309;52.126;11.616;2024-02-23T01:25:17;9.60;62.00
18365;DHT22;9309;52.126;11.616;2024-02-23T01:27:44;9.60;61.60
18365;DHT22;9309;52.126;11.616;2024-02-23T01:30:11;9.60;61.60
18365;DHT22;9309;52.126;11.616;2024-02-23T01:32:38;9.50;62.00
18365;DHT22;9309;52.126;11.616;2024-02-23T01:35:07;9.50;62.00
18365;DHT22;9309;52.126;11.616;2024-02-23T01:37:34;9.50;61.90
18365;DHT22;9309;52.126;11.616;2024-02-23T01:40:01;9.50;62.60
18365;DHT22;9309;52.126;11.616;2024-02-23T01:42:27;9.40;62.90
18365;DHT22;9309;52.126;11.616;2024-02-23T01:44:54;9.30;63.30
18365;DHT22;9309;52.126;11.616;2024-02-23T01:47:22;9.30;62.40
18365;DHT22;9309;52.126;11.616;2024-02-23T01:49:49;9.40;62.80
18365;DHT22;9309;52.126;11.616;2024-02-23T01:52:18;9.30;62.60
18365;DHT22;9309;52.126;11.616;2024-02-23T01:54:45;9.30;63.00
18365;DHT22;9309;52.126;11.616;2024-02-23T01:57:12;9.30;62.90
18365;DHT22;9309;52.126;11.616;2024-02-23T01:59:40;9.20;63.20
18365;DHT22;9309;52.126;11.616;2024-02-23T02:02:07;9.20;63.30
18365;DHT22;9309;52.126;11.616;2024-02-23T02:04:34;9.20;62.80
18365;DHT22;9309;52.126;11.616;2024-02-23T02:07:01;9.20;62.50
18365;DHT22;9309;52.126;11.616;2024-02-23T02:09:29;9.20;62.40
18365;DHT22;9309;52.126;11.616;2024-02-23T02:11:56;9.10;63.20
18365;DHT22;9309;52.126;11.616;2024-02-23T02:14:22;9.00;62.90
18365;DHT22;9309;52.126;11.616;2024-02-23T02:16:49;9.10;62.10
18365;DHT22;9309;52.126;11.616;2024-02-23T02:19:16;9.10;62.80
18365;DHT22;9309;52.126;11.616;2024-02-23T02:21:42;9.10;61.90
18365;DHT22;9309;52.126;11.616;2024-02-23T02:24:09;9.10;61.50
18365;DHT22;9309;52.126;11.616;2024-02-23T02:26:37;9.10;61.60
18365;DHT22;9309;52.126;11.616;2024-02-23T02:29:04;9.10;61.60
18365;DHT22;9309;52.126;11.616;2024-02-23T02:31:30;9.00;61.90
18365;DHT22;9309;52.126;11.616;2024-02-23T02:34:03;9.10;62.20
18365;DHT22;9309;52.126;11.616;2024-02-23T02:36:29;9.10;61.80
18365;DHT22;9309;52.126;11.616;2024-02-23T02:38:56;9.00;62.00
18365;DHT22;9309;52.126;11.616;2024-02-23T02:41:23;9.00;61.90
18365;DHT22;9309;52.126;11.616;2024-02-23T02:43:52;8.90;62.10
18365;DHT22;9309;52.126;11.616;2024-02-23T02:46:18;8.90;62.30
18365;DHT22;9309;52.126;11.616;2024-02-23T02:48:45;8.80;62.40
18365;DHT22;9309;52.126;11.616;2024-02-23T02:51:12;8.80;62.00
18365;DHT22;9309;52.126;11.616;2024-02-23T02:53:38;8.80;61.00
18365;DHT22;9309;52.126;11.616;2024-02-23T02:56:05;8.70;59.90
18365;DHT22;9309;52.126;11.616;2024-02-23T02:58:33;8.80;59.10
18365;DHT22;9309;52.126;11.616;2024-02-23T03:01:00;8.70;59.30
18365;DHT22;9309;52.126;11.616;2024-02-23T03:03:27;8.70;58.90
18365;DHT22;9309;52.126;11.616;2024-02-23T03:05:54;8.60;59.60
18365;DHT22;9309;52.126;11.616;2024-02-23T03:08:20;8.60;58.80
18365;DHT22;9309;52.126;11.616;2024-02-23T03:10:47;8.60;58.80
18365;DHT22;9309;52.126;11.616;2024-02-23T03:13:14;8.60;59.10
18365;DHT22;9309;52.126;11.616;2024-02-23T03:15:40;8.60;58.50
18365;DHT22;9309;52.126;11.616;2024-02-23T03:18:08;8.50;58.30
18365;DHT22;9309;52.126;11.616;2024-02-23T03:20:35;8.50;58.80
18365;DHT22;9309;52.126;11.616;2024-02-23T03:23:01;8.50;59.10
18365;DHT22;9309;52.126;11.616;2024-02-23T03:25:29;8.40;59.60
18365;DHT22;9309;52.126;11.616;2024-02-23T03:27:55;8.40;59.60
18365;DHT22;9309;52.126;11.616;2024-02-23T03:30:22;8.40;60.20
18365;DHT22;9309;52.126;11.616;2024-02-23T03:32:48;8.30;60.80
18365;DHT22;9309;52.126;11.616;2024-02-23T03:35:16;8.40;60.50
18365;DHT22;9309;52.126;11.616;2024-02-23T03:37:43;8.30;60.30
18365;DHT22;9309;52.126;11.616;2024-02-23T03:40:09;8.30;60.20
18365;DHT22;9309;52.126;11.616;2024-02-23T03:42:36;8.20;61.00
18365;DHT22;9309;52.126;11.616;2024-02-23T03:45:03;8.10;61.80
18365;DHT22;9309;52.126;11.616;2024-02-23T03:47:30;7.90;62.60
18365;DHT22;9309;52.126;11.616;2024-02-23T03:49:56;7.80;62.90
18365;DHT22;9309;52.126;11.616;2024-02-23T03:52:25;7.70;62.90
18365;DHT22;9309;52.126;11.616;2024-02-23T03:54:51;7.60;62.60
18365;DHT22;9309;52.126;11.616;2024-02-23T03:57:19;7.60;62.10
18365;DHT22;9309;52.126;11.616;2024-02-23T03:59:51;7.50;62.60
18365;DHT22;9309;52.126;11.616;2024-02-23T04:02:17;7.40;63.20
18365;DHT22;9309;52.126;11.616;2024-02-23T04:04:44;7.30;63.30
18365;DHT22;9309;52.126;11.616;2024-02-23T04:07:11;7.30;63.60
18365;DHT22;9309;52.126;11.616;2024-02-23T04:09:38;7.20;63.90
18365;DHT22;9309;52.126;11.616;2024-02-23T04:12:05;7.20;63.70
18365;DHT22;9309;52.126;11.616;2024-02-23T04:14:32;7.10;64.20
18365;DHT22;9309;52.126;11.616;2024-02-23T04:17:01;7.00;63.90
18365;DHT22;9309;52.126;11.616;2024-02-23T04:19:28;7.00;64.10
18365;DHT22;9309;52.126;11.616;2024-02-23T04:21:54;7.00;63.60
18365;DHT22;9309;52.126;11.616;2024-02-23T04:24:21;7.00;64.00
18365;DHT22;9309;52.126;11.616;2024-02-23T04:26:49;6.90;64.20
18365;DHT22;9309;52.126;11.616;2024-02-23T04:29:15;7.00;63.70
18365;DHT22;9309;52.126;11.616;2024-02-23T04:31:42;6.90;63.70
18365;DHT22;9309;52.126;11.616;2024-02-23T04:34:08;7.00;63.70
18365;DHT22;9309;52.126;11.616;2024-02-23T04:36:35;6.90;63.90
18365;DHT22;9309;52.126;11.616;2024-02-23T04:39:01;6.90;64.00
18365;DHT22;9309;52.126;11.616;2024-02-23T04:41:28;6.90;64.50
18365;DHT22;9309;52.126;11.616;2024-02-23T04:43:56;6.80;64.70
18365;DHT22;9309;52.126;11.616;2024-02-23T04:46:25;6.80;64.90
18365;DHT22;9309;52.126;11.616;2024-02-23T04:48:51;6.80;65.70
18365;DHT22;9309;52.126;11.616;2024-02-23T04:51:18;6.70;65.60
18365;DHT22;9309;52.126;11.616;2024-02-23T04:53:45;6.70;65.80
18365;DHT22;9309;52.126;11.616;2024-02-23T04:56:12;6.60;66.10
18365;DHT22;9309;52.126;11.616;2024-02-23T04:58:38;6.70;66.50
18365;DHT22;9309;52.126;11.616;2024-02-23T05:01:08;6.60;66.40
18365;DHT22;9309;52.126;11.616;2024-02-23T05:03:34;6.60;67.00
18365;DHT22;9309;52.126;11.616;2024-02-23T05:06:02;6.50;67.20
18365;DHT22;9309;52.126;11.616;2024-02-23T05:08:29;6.50;67.30
18365;DHT22;9309;52.126;11.616;2024-02-23T05:10:55;6.50;67.40
18365;DHT22;9309;52.126;11.616;2024-02-23T05:13:22;6.50;67.80
18365;DHT22;9309;52.126;11.616;2024-02-23T05:15:49;6.40;68.00
18365;DHT22;9309;52.126;11.616;2024-02-23T05:18:17;6.40;68.20
18365;DHT22;9309;52.126;11.616;2024-02-23T05:20:43;6.30;68.20
18365;DHT22;9309;52.126;11.616;2024-02-23T05:23:10;6.30;68.30
18365;DHT22;9309;52.126;11.616;2024-02-23T05:25:37;6.30;68.50
18365;DHT22;9309;52.126;11.616;2024-02-23T05:28:04;6.30;69.10
18365;DHT22;9309;52.126;11.616;2024-02-23T05:30:31;6.30;68.90
18365;DHT22;9309;52.126;11.616;2024-02-23T05:32:57;6.30;69.40
18365;DHT22;9309;52.126;11.616;2024-02-23T05:35:26;6.40;69.10
18365;DHT22;9309;52.126;11.616;2024-02-23T05:37:52;6.30;69.50
18365;DHT22;9309;52.126;11.616;2024-02-23T05:40:21;6.20;69.90
18365;DHT22;9309;52.126;11.616;2024-02-23T05:42:47;6.10;70.30
18365;DHT22;9309;52.126;11.616;2024-02-23T05:45:14;6.10;70.90
18365;DHT22;9309;52.126;11.616;2024-02-23T05:47:40;6.00;71.30
18365;DHT22;9309;52.126;11.616;2024-02-23T05:50:08;6.10;71.10
18365;DHT22;9309;52.126;11.616;2024-02-23T05:52:36;6.10;71.70
18365;DHT22;9309;52.126;11.616;2024-02-23T05:55:03;6.00;72.80
18365;DHT22;9309;52.126;11.616;2024-02-23T05:57:30;5.80;72.90
18365;DHT22;9309;52.126;11.616;2024-02-23T05:59:56;5.80;73.90
18365;DHT22;9309;52.126;11.616;2024-02-23T06:02:23;5.70;75.20
18365;DHT22;9309;52.126;11.616;2024-02-23T06:04:50;5.60;74.70
18365;DHT22;9309;52.126;11.616;2024-02-23T06:07:16;5.40;74.60
18365;DHT22;9309;52.126;11.616;2024-02-23T06:09:44;5.50;73.50
18365;DHT22;9309;52.126;11.616;2024-02-23T06:12:11;5.40;74.70
18365;DHT22;9309;52.126;11.616;2024-02-23T06:14:37;5.30;74.50
18365;DHT22;9309;52.126;11.616;2024-02-23T06:17:05;5.30;74.60
18365;DHT22;9309;52.126;11.616;2024-02-23T06:19:32;5.30;74.50
18365;DHT22;9309;52.126;11.616;2024-02-23T06:21:58;5.30;74.00
18365;DHT22;9309;52.126;11.616;2024-02-23T06:24:25;5.40;73.20
18365;DHT22;9309;52.126;11.616;2024-02-23T06:26:53;5.40;72.80
18365;DHT22;9309;52.126;11.616;2024-02-23T06:29:19;5.40;71.00
18365;DHT22;9309;52.126;11.616;2024-02-23T06:31:46;5.50;70.60
18365;DHT22;9309;52.126;11.616;2024-02-23T06:34:14;5.40;69.90
18365;DHT22;9309;52.126;11.616;2024-02-23T06:36:41;5.40;69.10
18365;DHT22;9309;52.126;11.616;2024-02-23T06:39:07;5.40;68.90
18365;DHT22;9309;52.126;11.616;2024-02-23T06:41:34;5.60;68.90
18365;DHT22;9309;52.126;11.616;2024-02-23T06:44:02;5.70;68.10
18365;DHT22;9309;52.126;11.616;2024-02-23T06:46:29;5.60;68.60
18365;DHT22;9309;52.126;11.616;2024-02-23T06:48:55;5.90;67.70
18365;DHT22;9309;52.126;11.616;2024-02-23T06:51:22;5.80;67.30
18365;DHT22;9309;52.126;11.616;2024-02-23T06:53:49;5.80;66.90
18365;DHT22;9309;52.126;11.616;2024-02-23T06:56:15;5.60;67.70
18365;DHT22;9309;52.126;11.616;2024-02-23T06:58:42;5.50;68.00
18365;DHT22;9309;52.126;11.616;2024-02-23T07:01:10;5.40;68.40
18365;DHT22;9309;52.126;11.616;2024-02-23T07:03:38;5.70;68.20
18365;DHT22;9309;52.126;11.616;2024-02-23T07:06:05;5.70;68.80
18365;DHT22;9309;52.126;11.616;2024-02-23T07:08:32;5.50;68.00
18365;DHT22;9309;52.126;11.616;2024-02-23T07:10:59;5.50;68.50
18365;DHT22;9309;52.126;11.616;2024-02-23T07:13:25;5.30;69.70
18365;DHT22;9309;52.126;11.616;2024-02-23T07:15:52;5.30;70.10
18365;DHT22;9309;52.126;11.616;2024-02-23T07:18:22;5.20;70.70
18365;DHT22;9309;52.126;11.616;2024-02-23T07:20:49;5.20;70.80
18365;DHT22;9309;52.126;11.616;2024-02-23T07:23:15;5.20;71.40
18365;DHT22;9309;52.126;11.616;2024-02-23T07:25:42;5.30;71.10
18365;DHT22;9309;52.126;11.616;2024-02-23T07:28:09;5.50;70.70
18365;DHT22;9309;52.126;11.616;2024-02-23T07:30:35;5.50;70.60
18365;DHT22;9309;52.126;11.616;2024-02-23T07:33:02;5.60;70.40
18365;DHT22;9309;52.126;11.616;2024-02-23T07:35:30;5.60;69.70
18365;DHT22;9309;52.126;11.616;2024-02-23T07:37:57;5.70;69.30
18365;DHT22;9309;52.126;11.616;2024-02-23T07:40:24;5.80;68.70
18365;DHT22;9309;52.126;11.616;2024-02-23T07:42:50;5.90;68.90
18365;DHT22;9309;52.126;11.616;2024-02-23T07:45:17;5.80;68.90
18365;DHT22;9309;52.126;11.616;2024-02-23T07:47:45;5.80;68.60
18365;DHT22;9309;52.126;11.616;2024-02-23T07:50:11;5.80;69.80
18365;DHT22;9309;52.126;11.616;2024-02-23T07:52:40;5.70;69.30
18365;DHT22;9309;52.126;11.616;2024-02-23T07:55:07;5.70;69.10
18365;DHT22;9309;52.126;11.616;2024-02-23T07:57:34;5.70;68.80
18365;DHT22;9309;52.126;11.616;2024-02-23T08:00:01;5.70;69.10
18365;DHT22;9309;52.126;11.616;2024-02-23T08:02:37;5.80;69.10
18365;DHT22;9309;52.126;11.616;2024-02-23T08:05:04;5.80;69.30
18365;DHT22;9309;52.126;11.616;2024-02-23T08:07:30;6.20;68.30
18365;DHT22;9309;52.126;11.616;2024-02-23T08:09:58;6.80;66.00
18365;DHT22;9309;52.126;11.616;2024-02-23T08:12:25;7.10;64.80
18365;DHT22;9309;52.126;11.616;2024-02-23T08:14:52;7.10;63.60
18365;DHT22;9309;52.126;11.616;2024-02-23T08:17:19;6.80;63.60
18365;DHT22;9309;52.126;11.616;2024-02-23T08:19:46;6.60;65.00
18365;DHT22;9309;52.126;11.616;2024-02-23T08:22:12;6.70;64.70
18365;DHT22;9309;52.126;11.616;2024-02-23T08:24:39;7.20;63.70
18365;DHT22;9309;52.126;11.616;2024-02-23T08:27:06;8.00;60.30
18365;DHT22;9309;52.126;11.616;2024-02-23T08:29:33;7.80;60.20
18365;DHT22;9309;52.126;11.616;2024-02-23T08:32:00;7.40;61.00
18365;DHT22;9309;52.126;11.616;2024-02-23T08:34:26;7.40;61.20
18365;DHT22;9309;52.126;11.616;2024-02-23T08:36:53;7.50;60.20
18365;DHT22;9309;52.126;11.616;2024-02-23T08:39:19;7.50;61.00
18365;DHT22;9309;52.126;11.616;2024-02-23T08:41:47;7.40;60.80
18365;DHT22;9309;52.126;11.616;2024-02-23T08:44:15;7.40;61.50
18365;DHT22;9309;52.126;11.616;2024-02-23T08:46:42;7.30;61.10
18365;DHT22;9309;52.126;11.616;2024-02-23T08:49:08;7.30;61.00
18365;DHT22;9309;52.126;11.616;2024-02-23T08:51:35;7.40;60.30
18365;DHT22;9309;52.126;11.616;2024-02-23T08:54:02;7.60;60.00
18365;DHT22;9309;52.126;11.616;2024-02-23T08:56:30;7.90;58.90
18365;DHT22;9309;52.126;11.616;2024-02-23T08:58:58;8.00;57.90
18365;DHT22;9309;52.126;11.616;2024-02-23T09:01:25;8.10;57.70
18365;DHT22;9309;52.126;11.616;2024-02-23T09:03:52;7.90;58.10
18365;DHT22;9309;52.126;11.616;2024-02-23T09:06:18;8.10;57.60
18365;DHT22;9309;52.126;11.616;2024-02-23T09:08:45;8.70;56.30
18365;DHT22;9309;52.126;11.616;2024-02-23T09:11:12;9.40;54.50
18365;DHT22;9309;52.126;11.616;2024-02-23T09:13:40;9.80;53.10
18365;DHT22;9309;52.126;11.616;2024-02-23T09:16:07;9.90;52.40
18365;DHT22;9309;52.126;11.616;2024-02-23T09:18:35;10.40;51.40
18365;DHT22;9309;52.126;11.616;2024-02-23T09:21:02;10.20;51.60
18365;DHT22;9309;52.126;11.616;2024-02-23T09:23:28;9.80;52.70
18365;DHT22;9309;52.126;11.616;2024-02-23T09:25:55;9.60;53.80
18365;DHT22;9309;52.126;11.616;2024-02-23T09:28:22;9.50;54.20
18365;DHT22;9309;52.126;11.616;2024-02-23T09:30:48;9.20;55.30
18365;DHT22;9309;52.126;11.616;2024-02-23T09:33:15;9.00;55.50
18365;DHT22;9309;52.126;11.616;2024-02-23T09:35:42;9.10;54.80
18365;DHT22;9309;52.126;11.616;2024-02-23T09:38:09;9.20;54.50
18365;DHT22;9309;52.126;11.616;2024-02-23T09:40:35;9.30;55.40
18365;DHT22;9309;52.126;11.616;2024-02-23T09:43:02;9.30;55.70
18365;DHT22;9309;52.126;11.616;2024-02-23T09:45:29;9.10;55.50
18365;DHT22;9309;52.126;11.616;2024-02-23T09:47:57;9.30;55.20
18365;DHT22;9309;52.126;11.616;2024-02-23T09:50:24;9.30;54.10
18365;DHT22;9309;52.126;11.616;2024-02-23T09:52:52;9.00;54.50
18365;DHT22;9309;52.126;11.616;2024-02-23T09:55:19;9.00;54.70
18365;DHT22;9309;52.126;11.616;2024-02-23T09:57:47;9.00;54.60
18365;DHT22;9309;52.126;11.616;2024-02-23T10:00:14;9.00;53.90
18365;DHT22;9309;52.126;11.616;2024-02-23T10:02:42;9.10;55.30
18365;DHT22;9309;52.126;11.616;2024-02-23T10:05:10;9.20;53.50
18365;DHT22;9309;52.126;11.616;2024-02-23T10:07:37;9.30;51.50
18365;DHT22;9309;52.126;11.616;2024-02-23T10:10:07;9.50;51.10
18365;DHT22;9309;52.126;11.616;2024-02-23T10:12:34;9.70;50.40
18365;DHT22;9309;52.126;11.616;2024-02-23T10:15:01;10.00;49.40
18365;DHT22;9309;52.126;11.616;2024-02-23T10:17:29;10.10;49.10
18365;DHT22;9309;52.126;11.616;2024-02-23T10:19:55;10.00;49.80
18365;DHT22;9309;52.126;11.616;2024-02-23T10:22:22;10.10;49.70
18365;DHT22;9309;52.126;11.616;2024-02-23T10:24:50;10.00;50.10
18365;DHT22;9309;52.126;11.616;2024-02-23T10:27:18;9.90;49.00
18365;DHT22;9309;52.126;11.616;2024-02-23T10:29:48;9.80;50.00
18365;DHT22;9309;52.126;11.616;2024-02-23T10:32:15;9.90;49.90
18365;DHT22;9309;52.126;11.616;2024-02-23T10:34:43;9.80;50.50
18365;DHT22;9309;52.126;11.616;2024-02-23T10:37:09;9.90;51.10
18365;DHT22;9309;52.126;11.616;2024-02-23T10:39:36;9.90;51.00
18365;DHT22;9309;52.126;11.616;2024-02-23T10:42:03;9.70;50.80
18365;DHT22;9309;52.126;11.616;2024-02-23T10:44:34;9.80;50.10
18365;DHT22;9309;52.126;11.616;2024-02-23T10:47:02;9.70;50.50
18365;DHT22;9309;52.126;11.616;2024-02-23T10:49:29;9.70;51.60
18365;DHT22;9309;52.126;11.616;2024-02-23T10:51:56;9.80;51.10
18365;DHT22;9309;52.126;11.616;2024-02-23T10:54:22;9.70;51.00
18365;DHT22;9309;52.126;11.616;2024-02-23T10:56:49;9.90;50.80
18365;DHT22;9309;52.126;11.616;2024-02-23T10:59:16;9.80;51.50
18365;DHT22;9309;52.126;11.616;2024-02-23T11:01:45;10.20;51.20
18365;DHT22;9309;52.126;11.616;2024-02-23T11:04:13;10.60;49.10
18365;DHT22;9309;52.126;11.616;2024-02-23T11:06:39;10.50;48.60
18365;DHT22;9309;52.126;11.616;2024-02-23T11:09:06;10.10;49.70
18365;DHT22;9309;52.126;11.616;2024-02-23T11:11:34;10.10;50.50
18365;DHT22;9309;52.126;11.616;2024-02-23T11:14:02;10.30;49.80
18365;DHT22;9309;52.126;11.616;2024-02-23T11:16:28;10.80;48.10
18365;DHT22;9309;52.126;11.616;2024-02-23T11:19:04;11.60;46.30
18365;DHT22;9309;52.126;11.616;2024-02-23T11:21:34;12.40;45.90
18365;DHT22;9309;52.126;11.616;2024-02-23T11:24:02;13.10;42.80
18365;DHT22;9309;52.126;11.616;2024-02-23T11:26:29;13.00;42.40
18365;DHT22;9309;52.126;11.616;2024-02-23T11:28:55;13.00;42.50
18365;DHT22;9309;52.126;11.616;2024-02-23T11:31:23;12.50;43.50
18365;DHT22;9309;52.126;11.616;2024-02-23T11:33:51;12.40;43.40
18365;DHT22;9309;52.126;11.616;2024-02-23T11:36:27;12.30;42.80
18365;DHT22;9309;52.126;11.616;2024-02-23T11:38:54;12.40;43.40
18365;DHT22;9309;52.126;11.616;2024-02-23T11:41:21;12.40;43.30
18365;DHT22;9309;52.126;11.616;2024-02-23T11:43:48;11.50;45.20
18365;DHT22;9309;52.126;11.616;2024-02-23T11:46:15;10.90;45.60
18365;DHT22;9309;52.126;11.616;2024-02-23T11:48:42;10.80;47.50
18365;DHT22;9309;52.126;11.616;2024-02-23T11:51:09;12.00;46.90
18365;DHT22;9309;52.126;11.616;2024-02-23T11:53:38;11.90;47.60
18365;DHT22;9309;52.126;11.616;2024-02-23T11:56:05;11.30;48.50
18365;DHT22;9309;52.126;11.616;2024-02-23T11:58:32;10.10;51.30
18365;DHT22;9309;52.126;11.616;2024-02-23T12:00:58;9.70;52.40
18365;DHT22;9309;52.126;11.616;2024-02-23T12:03:28;9.80;53.50
18365;DHT22;9309;52.126;11.616;2024-02-23T12:05:55;10.60;51.50
18365;DHT22;9309;52.126;11.616;2024-02-23T12:08:22;11.30;50.60
18365;DHT22;9309;52.126;11.616;2024-02-23T12:10:50;11.50;49.00
18365;DHT22;9309;52.126;11.616;2024-02-23T12:13:17;12.30;46.60
18365;DHT22;9309;52.126;11.616;2024-02-23T12:15:44;11.20;46.90
18365;DHT22;9309;52.126;11.616;2024-02-23T12:18:10;10.60;49.40
18365;DHT22;9309;52.126;11.616;2024-02-23T12:20:37;10.30;50.60
18365;DHT22;9309;52.126;11.616;2024-02-23T12:23:04;10.00;51.60
18365;DHT22;9309;52.126;11.616;2024-02-23T12:25:31;9.70;52.60
18365;DHT22;9309;52.126;11.616;2024-02-23T12:28:00;10.20;52.00
18365;DHT22;9309;52.126;11.616;2024-02-23T12:30:27;10.20;52.20
18365;DHT22;9309;52.126;11.616;2024-02-23T12:33:04;10.50;51.60
18365;DHT22;9309;52.126;11.616;2024-02-23T12:35:31;11.60;49.50
18365;DHT22;9309;52.126;11.616;2024-02-23T12:37:57;11.90;46.30
18365;DHT22;9309;52.126;11.616;2024-02-23T12:40:24;11.20;46.60
18365;DHT22;9309;52.126;11.616;2024-02-23T12:42:51;10.90;47.20
18365;DHT22;9309;52.126;11.616;2024-02-23T12:45:19;11.00;47.50
18365;DHT22;9309;52.126;11.616;2024-02-23T12:47:45;10.90;47.90
18365;DHT22;9309;52.126;11.616;2024-02-23T12:50:12;10.40;49.20
18365;DHT22;9309;52.126;11.616;2024-02-23T12:52:39;10.50;49.20
18365;DHT22;9309;52.126;11.616;2024-02-23T12:55:06;10.70;48.80
18365;DHT22;9309;52.126;11.616;2024-02-23T12:57:33;10.60;50.80
18365;DHT22;9309;52.126;11.616;2024-02-23T13:00:00;10.80;49.10
18365;DHT22;9309;52.126;11.616;2024-02-23T13:02:28;10.50;49.90
18365;DHT22;9309;52.126;11.616;2024-02-23T13:04:55;10.40;50.90
18365;DHT22;9309;52.126;11.616;2024-02-23T13:07:21;10.20;51.10
18365;DHT22;9309;52.126;11.616;2024-02-23T13:09:48;10.00;51.20
18365;DHT22;9309;52.126;11.616;2024-02-23T13:12:15;10.10;51.10
18365;DHT22;9309;52.126;11.616;2024-02-23T13:14:41;10.50;50.60
18365;DHT22;9309;52.126;11.616;2024-02-23T13:17:08;10.70;50.10
18365;DHT22;9309;52.126;11.616;2024-02-23T13:19:36;11.10;49.10
18365;DHT22;9309;52.126;11.616;2024-02-23T13:22:03;11.30;49.40
18365;DHT22;9309;52.126;11.616;2024-02-23T13:24:29;11.40;49.60
18365;DHT22;9309;52.126;11.616;2024-02-23T13:26:56;11.40;49.00
18365;DHT22;9309;52.126;11.616;2024-02-23T13:29:21;11.10;49.50
18365;DHT22;9309;52.126;11.616;2024-02-23T13:31:48;10.80;50.60
18365;DHT22;9309;52.126;11.616;2024-02-23T13:34:15;10.60;50.10
18365;DHT22;9309;52.126;11.616;2024-02-23T13:36:44;10.30;51.00
18365;DHT22;9309;52.126;11.616;2024-02-23T13:39:11;10.20;51.10
18365;DHT22;9309;52.126;11.616;2024-02-23T13:41:38;10.10;50.60
18365;DHT22;9309;52.126;11.616;2024-02-23T13:44:05;10.30;51.00
18365;DHT22;9309;52.126;11.616;2024-02-23T13:46:31;10.50;50.20
18365;DHT22;9309;52.126;11.616;2024-02-23T13:49:03;10.50;50.20
18365;DHT22;9309;52.126;11.616;2024-02-23T13:51:31;10.40;50.30
18365;DHT22;9309;52.126;11.616;2024-02-23T13:53:59;10.20;51.10
18365;DHT22;9309;52.126;11.616;2024-02-23T13:56:26;10.30;50.50
18365;DHT22;9309;52.126;11.616;2024-02-23T13:58:53;10.30;51.60
18365;DHT22;9309;52.126;11.616;2024-02-23T14:01:20;10.20;51.30
18365;DHT22;9309;52.126;11.616;2024-02-23T14:03:46;10.30;51.00
18365;DHT22;9309;52.126;11.616;2024-02-23T14:06:13;10.20;51.70
18365;DHT22;9309;52.126;11.616;2024-02-23T14:08:40;10.10;51.50
18365;DHT22;9309;52.126;11.616;2024-02-23T14:11:09;10.00;52.10
18365;DHT22;9309;52.126;11.616;2024-02-23T14:13:36;9.90;51.80
18365;DHT22;9309;52.126;11.616;2024-02-23T14:16:04;9.80;52.70
18365;DHT22;9309;52.126;11.616;2024-02-23T14:18:31;9.80;52.20
18365;DHT22;9309;52.126;11.616;2024-02-23T14:21:02;9.70;53.80
18365;DHT22;9309;52.126;11.616;2024-02-23T14:23:29;9.60;54.70
18365;DHT22;9309;52.126;11.616;2024-02-23T14:25:56;9.60;55.10
18365;DHT22;9309;52.126;11.616;2024-02-23T14:28:24;9.40;55.80
18365;DHT22;9309;52.126;11.616;2024-02-23T14:30:50;9.40;56.40
18365;DHT22;9309;52.126;11.616;2024-02-23T14:33:18;9.20;56.60
18365;DHT22;9309;52.126;11.616;2024-02-23T14:35:45;9.20;56.60
18365;DHT22;9309;52.126;11.616;2024-02-23T14:38:12;9.10;57.70
18365;DHT22;9309;52.126;11.616;2024-02-23T14:40:39;9.00;56.80
18365;DHT22;9309;52.126;11.616;2024-02-23T14:43:06;9.00;57.30
18365;DHT22;9309;52.126;11.616;2024-02-23T14:45:34;9.00;57.00
18365;DHT22;9309;52.126;11.616;2024-02-23T14:48:01;9.00;56.40
18365;DHT22;9309;52.126;11.616;2024-02-23T14:50:28;8.80;56.80
18365;DHT22;9309;52.126;11.616;2024-02-23T14:52:55;8.90;57.70
18365;DHT22;9309;52.126;11.616;2024-02-23T14:55:22;8.80;57.50
18365;DHT22;9309;52.126;11.616;2024-02-23T14:57:48;8.80;56.20
18365;DHT22;9309;52.126;11.616;2024-02-23T15:00:16;8.70;57.10
18365;DHT22;9309;52.126;11.616;2024-02-23T15:02:44;8.70;57.30
18365;DHT22;9309;52.126;11.616;2024-02-23T15:05:11;8.70;56.40
18365;DHT22;9309;52.126;11.616;2024-02-23T15:07:37;8.60;57.50
18365;DHT22;9309;52.126;11.616;2024-02-23T15:10:05;8.60;57.30
18365;DHT22;9309;52.126;11.616;2024-02-23T15:12:33;8.60;58.60
18365;DHT22;9309;52.126;11.616;2024-02-23T15:15:00;8.60;58.00
18365;DHT22;9309;52.126;11.616;2024-02-23T15:17:29;8.70;58.00
18365;DHT22;9309;52.126;11.616;2024-02-23T15:19:57;8.70;58.40
18365;DHT22;9309;52.126;11.616;2024-02-23T15:22:24;8.70;58.00
18365;DHT22;9309;52.126;11.616;2024-02-23T15:24:51;8.70;57.70
18365;DHT22;9309;52.126;11.616;2024-02-23T15:27:18;8.60;58.50
18365;DHT22;9309;52.126;11.616;2024-02-23T15:29:45;8.60;58.50
18365;DHT22;9309;52.126;11.616;2024-02-23T15:32:13;8.50;59.30
18365;DHT22;9309;52.126;11.616;2024-02-23T15:34:40;8.50;59.10
18365;DHT22;9309;52.126;11.616;2024-02-23T15:37:08;8.40;59.30
18365;DHT22;9309;52.126;11.616;2024-02-23T15:39:35;8.40;59.60
18365;DHT22;9309;52.126;11.616;2024-02-23T15:42:01;8.50;59.60